sensor_id;sensor_type;location;lat;lon;timestamp;temperature;humidity
68257;DHT22;55069;51.568;4.656;2022-08-19T00:01:40;17.99;83.44
68257;DHT22;55069;51.568;4.656;2022-08-19T00:04:09;17.97;83.50
68257;DHT22;55069;51.568;4.656;2022-08-19T00:06:36;17.97;83.44
68257;DHT22;55069;51.568;4.656;2022-08-19T00:09:05;18.00;83.26
68257;DHT22;55069;51.568;4.656;2022-08-19T00:11:31;17.97;83.24
68257;DHT22;55069;51.568;4.656;2022-08-19T00:13:57;17.99;83.13
68257;DHT22;55069;51.568;4.656;2022-08-19T00:16:24;17.97;83.18
68257;DHT22;55069;51.568;4.656;2022-08-19T00:18:50;17.96;83.07
68257;DHT22;55069;51.568;4.656;2022-08-19T00:21:16;17.93;83.26
68257;DHT22;55069;51.568;4.656;2022-08-19T00:23:42;17.92;83.04
68257;DHT22;55069;51.568;4.656;2022-08-19T00:26:09;17.92;83.14
68257;DHT22;55069;51.568;4.656;2022-08-19T00:28:35;17.87;83.32
68257;DHT22;55069;51.568;4.656;2022-08-19T00:31:03;17.87;83.15
68257;DHT22;55069;51.568;4.656;2022-08-19T00:33:30;17.85;83.32
68257;DHT22;55069;51.568;4.656;2022-08-19T00:36:00;17.82;83.49
68257;DHT22;55069;51.568;4.656;2022-08-19T00:38:26;17.76;84.03
68257;DHT22;55069;51.568;4.656;2022-08-19T00:40:53;17.71;84.19
68257;DHT22;55069;51.568;4.656;2022-08-19T00:43:21;17.65;84.59
68257;DHT22;55069;51.568;4.656;2022-08-19T00:45:47;17.61;84.70
68257;DHT22;55069;51.568;4.656;2022-08-19T00:48:14;17.58;84.89
68257;DHT22;55069;51.568;4.656;2022-08-19T00:50:41;17.54;84.46
68257;DHT22;55069;51.568;4.656;2022-08-19T00:53:09;17.51;84.60
68257;DHT22;55069;51.568;4.656;2022-08-19T00:55:37;17.44;84.72
68257;DHT22;55069;51.568;4.656;2022-08-19T00:58:08;17.42;84.86
68257;DHT22;55069;51.568;4.656;2022-08-19T01:00:35;17.44;85.03
68257;DHT22;55069;51.568;4.656;2022-08-19T01:03:08;17.42;84.75
68257;DHT22;55069;51.568;4.656;2022-08-19T01:05:35;17.41;85.00
68257;DHT22;55069;51.568;4.656;2022-08-19T01:08:03;17.41;85.35
68257;DHT22;55069;51.568;4.656;2022-08-19T01:10:39;17.35;85.04
68257;DHT22;55069;51.568;4.656;2022-08-19T01:13:05;17.32;85.21
68257;DHT22;55069;51.568;4.656;2022-08-19T01:15:34;17.32;85.04
68257;DHT22;55069;51.568;4.656;2022-08-19T01:18:05;17.34;84.73
68257;DHT22;55069;51.568;4.656;2022-08-19T01:20:31;17.37;84.72
68257;DHT22;55069;51.568;4.656;2022-08-19T01:22:58;17.38;84.65
68257;DHT22;55069;51.568;4.656;2022-08-19T01:25:38;17.48;84.41
68257;DHT22;55069;51.568;4.656;2022-08-19T01:28:04;17.52;84.17
68257;DHT22;55069;51.568;4.656;2022-08-19T01:30:33;17.55;84.07
68257;DHT22;55069;51.568;4.656;2022-08-19T01:32:59;17.52;84.09
68257;DHT22;55069;51.568;4.656;2022-08-19T01:35:27;17.49;83.92
68257;DHT22;55069;51.568;4.656;2022-08-19T01:37:59;17.45;84.12
68257;DHT22;55069;51.568;4.656;2022-08-19T01:40:29;17.45;84.01
68257;DHT22;55069;51.568;4.656;2022-08-19T01:42:56;17.42;84.19
68257;DHT22;55069;51.568;4.656;2022-08-19T01:45:24;17.41;84.21
68257;DHT22;55069;51.568;4.656;2022-08-19T01:47:50;17.45;84.17
68257;DHT22;55069;51.568;4.656;2022-08-19T01:50:15;17.44;84.17
68257;DHT22;55069;51.568;4.656;2022-08-19T01:52:42;17.39;84.44
68257;DHT22;55069;51.568;4.656;2022-08-19T01:55:13;17.32;84.78
68257;DHT22;55069;51.568;4.656;2022-08-19T01:57:41;17.27;85.09
68257;DHT22;55069;51.568;4.656;2022-08-19T02:00:11;17.24;84.79
68257;DHT22;55069;51.568;4.656;2022-08-19T02:02:37;17.20;84.77
68257;DHT22;55069;51.568;4.656;2022-08-19T02:05:03;17.18;85.01
68257;DHT22;55069;51.568;4.656;2022-08-19T02:07:29;17.16;85.99
68257;DHT22;55069;51.568;4.656;2022-08-19T02:09:54;17.13;85.61
68257;DHT22;55069;51.568;4.656;2022-08-19T02:12:21;17.13;85.60
68257;DHT22;55069;51.568;4.656;2022-08-19T02:14:47;17.18;86.35
68257;DHT22;55069;51.568;4.656;2022-08-19T02:17:13;17.17;87.58
68257;DHT22;55069;51.568;4.656;2022-08-19T02:19:38;17.17;86.93
68257;DHT22;55069;51.568;4.656;2022-08-19T02:22:04;17.14;87.40
68257;DHT22;55069;51.568;4.656;2022-08-19T02:24:30;17.11;86.77
68257;DHT22;55069;51.568;4.656;2022-08-19T02:26:55;17.11;86.89
68257;DHT22;55069;51.568;4.656;2022-08-19T02:29:21;17.10;87.15
68257;DHT22;55069;51.568;4.656;2022-08-19T02:31:46;17.09;87.99
68257;DHT22;55069;51.568;4.656;2022-08-19T02:34:12;17.13;89.01
68257;DHT22;55069;51.568;4.656;2022-08-19T02:36:38;17.16;88.28
68257;DHT22;55069;51.568;4.656;2022-08-19T02:39:04;17.13;89.54
68257;DHT22;55069;51.568;4.656;2022-08-19T02:41:31;17.06;89.39
68257;DHT22;55069;51.568;4.656;2022-08-19T02:43:59;17.04;89.34
68257;DHT22;55069;51.568;4.656;2022-08-19T02:46:28;17.02;89.23
68257;DHT22;55069;51.568;4.656;2022-08-19T02:49:01;17.03;89.70
68257;DHT22;55069;51.568;4.656;2022-08-19T02:51:32;17.06;89.63
68257;DHT22;55069;51.568;4.656;2022-08-19T02:53:59;17.02;89.51
68257;DHT22;55069;51.568;4.656;2022-08-19T02:56:26;16.97;89.63
68257;DHT22;55069;51.568;4.656;2022-08-19T02:58:56;16.93;89.77
68257;DHT22;55069;51.568;4.656;2022-08-19T03:01:25;16.89;90.17
68257;DHT22;55069;51.568;4.656;2022-08-19T03:03:51;16.91;90.88
68257;DHT22;55069;51.568;4.656;2022-08-19T03:06:17;16.91;90.61
68257;DHT22;55069;51.568;4.656;2022-08-19T03:08:44;16.93;91.31
68257;DHT22;55069;51.568;4.656;2022-08-19T03:11:22;16.94;91.38
68257;DHT22;55069;51.568;4.656;2022-08-19T03:13:48;16.93;90.86
68257;DHT22;55069;51.568;4.656;2022-08-19T03:16:16;16.87;91.12
68257;DHT22;55069;51.568;4.656;2022-08-19T03:18:42;16.89;90.85
68257;DHT22;55069;51.568;4.656;2022-08-19T03:21:07;16.89;90.81
68257;DHT22;55069;51.568;4.656;2022-08-19T03:23:33;16.83;90.71
68257;DHT22;55069;51.568;4.656;2022-08-19T03:26:03;16.79;90.44
68257;DHT22;55069;51.568;4.656;2022-08-19T03:28:29;16.79;90.33
68257;DHT22;55069;51.568;4.656;2022-08-19T03:31:05;16.80;90.33
68257;DHT22;55069;51.568;4.656;2022-08-19T03:33:33;16.86;90.53
68257;DHT22;55069;51.568;4.656;2022-08-19T03:38:26;16.76;90.21
68257;DHT22;55069;51.568;4.656;2022-08-19T03:40:51;16.73;90.77
68257;DHT22;55069;51.568;4.656;2022-08-19T03:43:17;16.65;90.31
68257;DHT22;55069;51.568;4.656;2022-08-19T03:45:43;16.68;90.64
68257;DHT22;55069;51.568;4.656;2022-08-19T03:48:09;16.65;89.89
68257;DHT22;55069;51.568;4.656;2022-08-19T03:50:39;16.55;89.28
68257;DHT22;55069;51.568;4.656;2022-08-19T03:53:04;16.59;89.65
68257;DHT22;55069;51.568;4.656;2022-08-19T03:55:30;16.55;89.26
68257;DHT22;55069;51.568;4.656;2022-08-19T03:57:55;16.53;89.50
68257;DHT22;55069;51.568;4.656;2022-08-19T04:00:21;16.52;89.79
68257;DHT22;55069;51.568;4.656;2022-08-19T04:02:47;16.49;89.08
68257;DHT22;55069;51.568;4.656;2022-08-19T04:05:12;16.52;89.20
68257;DHT22;55069;51.568;4.656;2022-08-19T04:07:39;16.48;89.12
68257;DHT22;55069;51.568;4.656;2022-08-19T04:10:05;16.48;89.96
68257;DHT22;55069;51.568;4.656;2022-08-19T04:12:31;16.45;89.82
68257;DHT22;55069;51.568;4.656;2022-08-19T04:14:57;16.42;89.36
68257;DHT22;55069;51.568;4.656;2022-08-19T04:17:23;16.42;89.83
68257;DHT22;55069;51.568;4.656;2022-08-19T04:19:49;16.41;89.13
68257;DHT22;55069;51.568;4.656;2022-08-19T04:22:15;16.44;90.53
68257;DHT22;55069;51.568;4.656;2022-08-19T04:24:40;16.42;90.79
68257;DHT22;55069;51.568;4.656;2022-08-19T04:27:06;16.40;91.17
68257;DHT22;55069;51.568;4.656;2022-08-19T04:29:32;16.31;91.43
68257;DHT22;55069;51.568;4.656;2022-08-19T04:31:58;16.31;91.15
68257;DHT22;55069;51.568;4.656;2022-08-19T04:34:27;16.29;91.00
68257;DHT22;55069;51.568;4.656;2022-08-19T04:36:55;16.34;90.34
68257;DHT22;55069;51.568;4.656;2022-08-19T04:39:28;16.26;90.07
68257;DHT22;55069;51.568;4.656;2022-08-19T04:42:13;16.34;90.53
68257;DHT22;55069;51.568;4.656;2022-08-19T04:44:57;16.26;90.53
68257;DHT22;55069;51.568;4.656;2022-08-19T04:47:24;16.32;90.60
68257;DHT22;55069;51.568;4.656;2022-08-19T04:49:50;16.31;91.01
68257;DHT22;55069;51.568;4.656;2022-08-19T04:52:15;16.32;91.22
68257;DHT22;55069;51.568;4.656;2022-08-19T04:54:41;16.31;90.83
68257;DHT22;55069;51.568;4.656;2022-08-19T04:57:08;16.36;90.99
68257;DHT22;55069;51.568;4.656;2022-08-19T04:59:36;16.42;90.61
68257;DHT22;55069;51.568;4.656;2022-08-19T05:02:03;16.51;90.31
68257;DHT22;55069;51.568;4.656;2022-08-19T05:04:28;16.61;89.26
68257;DHT22;55069;51.568;4.656;2022-08-19T05:06:56;16.70;88.42
68257;DHT22;55069;51.568;4.656;2022-08-19T05:09:23;16.69;88.57
68257;DHT22;55069;51.568;4.656;2022-08-19T05:11:49;16.68;88.45
68257;DHT22;55069;51.568;4.656;2022-08-19T05:14:18;16.73;88.59
68257;DHT22;55069;51.568;4.656;2022-08-19T05:16:45;16.62;88.97
68257;DHT22;55069;51.568;4.656;2022-08-19T05:19:10;16.61;88.67
68257;DHT22;55069;51.568;4.656;2022-08-19T05:21:54;16.56;88.99
68257;DHT22;55069;51.568;4.656;2022-08-19T05:24:52;16.59;88.68
68257;DHT22;55069;51.568;4.656;2022-08-19T05:27:18;16.63;88.39
68257;DHT22;55069;51.568;4.656;2022-08-19T05:29:44;16.73;88.26
68257;DHT22;55069;51.568;4.656;2022-08-19T05:32:09;16.69;88.40
68257;DHT22;55069;51.568;4.656;2022-08-19T05:34:36;16.72;88.28
68257;DHT22;55069;51.568;4.656;2022-08-19T05:37:04;16.76;87.66
68257;DHT22;55069;51.568;4.656;2022-08-19T05:39:31;16.76;88.37
68257;DHT22;55069;51.568;4.656;2022-08-19T05:42:00;16.82;87.92
68257;DHT22;55069;51.568;4.656;2022-08-19T05:44:28;16.84;87.93
68257;DHT22;55069;51.568;4.656;2022-08-19T05:47:03;16.93;88.02
68257;DHT22;55069;51.568;4.656;2022-08-19T05:49:30;17.02;87.66
68257;DHT22;55069;51.568;4.656;2022-08-19T05:51:57;17.17;86.68
68257;DHT22;55069;51.568;4.656;2022-08-19T05:54:24;17.32;85.90
68257;DHT22;55069;51.568;4.656;2022-08-19T05:56:50;17.48;86.24
68257;DHT22;55069;51.568;4.656;2022-08-19T05:59:18;17.57;86.54
68257;DHT22;55069;51.568;4.656;2022-08-19T06:01:48;17.65;85.98
68257;DHT22;55069;51.568;4.656;2022-08-19T06:04:17;17.74;85.93
68257;DHT22;55069;51.568;4.656;2022-08-19T06:06:45;17.82;85.97
68257;DHT22;55069;51.568;4.656;2022-08-19T06:09:11;17.93;85.24
68257;DHT22;55069;51.568;4.656;2022-08-19T06:11:41;17.99;84.74
68257;DHT22;55069;51.568;4.656;2022-08-19T06:14:14;18.07;84.98
68257;DHT22;55069;51.568;4.656;2022-08-19T06:16:41;18.14;84.83
68257;DHT22;55069;51.568;4.656;2022-08-19T06:19:12;18.16;85.03
68257;DHT22;55069;51.568;4.656;2022-08-19T06:21:40;18.14;84.75
68257;DHT22;55069;51.568;4.656;2022-08-19T06:24:08;18.26;85.63
68257;DHT22;55069;51.568;4.656;2022-08-19T06:26:36;18.27;84.44
68257;DHT22;55069;51.568;4.656;2022-08-19T06:29:06;18.38;84.76
68257;DHT22;55069;51.568;4.656;2022-08-19T06:31:34;18.45;84.42
68257;DHT22;55069;51.568;4.656;2022-08-19T06:34:02;18.52;84.03
68257;DHT22;55069;51.568;4.656;2022-08-19T06:36:32;18.62;83.40
68257;DHT22;55069;51.568;4.656;2022-08-19T06:39:08;18.75;84.20
68257;DHT22;55069;51.568;4.656;2022-08-19T06:41:41;18.67;85.09
68257;DHT22;55069;51.568;4.656;2022-08-19T06:44:16;18.61;85.20
68257;DHT22;55069;51.568;4.656;2022-08-19T06:46:43;18.76;84.25
68257;DHT22;55069;51.568;4.656;2022-08-19T06:49:09;18.87;84.45
68257;DHT22;55069;51.568;4.656;2022-08-19T06:51:36;18.98;84.81
68257;DHT22;55069;51.568;4.656;2022-08-19T06:54:02;18.82;84.79
68257;DHT22;55069;51.568;4.656;2022-08-19T06:56:30;18.94;84.65
68257;DHT22;55069;51.568;4.656;2022-08-19T06:59:06;19.02;84.84
68257;DHT22;55069;51.568;4.656;2022-08-19T07:01:40;19.02;85.04
68257;DHT22;55069;51.568;4.656;2022-08-19T07:04:07;19.03;85.53
68257;DHT22;55069;51.568;4.656;2022-08-19T07:06:34;19.26;84.59
68257;DHT22;55069;51.568;4.656;2022-08-19T07:09:00;19.31;84.41
68257;DHT22;55069;51.568;4.656;2022-08-19T07:11:26;19.33;84.84
68257;DHT22;55069;51.568;4.656;2022-08-19T07:13:52;19.46;84.70
68257;DHT22;55069;51.568;4.656;2022-08-19T07:16:19;19.66;84.00
68257;DHT22;55069;51.568;4.656;2022-08-19T07:18:48;19.57;84.56
68257;DHT22;55069;51.568;4.656;2022-08-19T07:21:18;19.78;84.31
68257;DHT22;55069;51.568;4.656;2022-08-19T07:23:44;19.68;84.49
68257;DHT22;55069;51.568;4.656;2022-08-19T07:26:23;19.95;84.27
68257;DHT22;55069;51.568;4.656;2022-08-19T07:28:50;20.08;83.54
68257;DHT22;55069;51.568;4.656;2022-08-19T07:31:19;20.04;83.27
68257;DHT22;55069;51.568;4.656;2022-08-19T07:33:47;20.22;83.47
68257;DHT22;55069;51.568;4.656;2022-08-19T07:36:15;19.85;84.36
68257;DHT22;55069;51.568;4.656;2022-08-19T07:38:43;19.99;83.83
68257;DHT22;55069;51.568;4.656;2022-08-19T07:41:11;20.22;83.30
68257;DHT22;55069;51.568;4.656;2022-08-19T07:43:37;20.09;83.79
68257;DHT22;55069;51.568;4.656;2022-08-19T07:46:03;20.22;83.16
68257;DHT22;55069;51.568;4.656;2022-08-19T07:48:29;20.46;82.78
68257;DHT22;55069;51.568;4.656;2022-08-19T07:50:57;20.44;82.93
68257;DHT22;55069;51.568;4.656;2022-08-19T07:53:24;20.60;82.67
68257;DHT22;55069;51.568;4.656;2022-08-19T07:55:50;20.67;82.50
68257;DHT22;55069;51.568;4.656;2022-08-19T07:58:19;21.01;81.51
68257;DHT22;55069;51.568;4.656;2022-08-19T08:00:48;20.74;81.59
68257;DHT22;55069;51.568;4.656;2022-08-19T08:03:15;20.60;82.10
68257;DHT22;55069;51.568;4.656;2022-08-19T08:05:42;20.79;81.19
68257;DHT22;55069;51.568;4.656;2022-08-19T08:08:27;21.21;81.06
68257;DHT22;55069;51.568;4.656;2022-08-19T08:11:12;21.45;80.26
68257;DHT22;55069;51.568;4.656;2022-08-19T08:13:38;21.39;79.87
68257;DHT22;55069;51.568;4.656;2022-08-19T08:16:06;21.35;79.97
68257;DHT22;55069;51.568;4.656;2022-08-19T08:18:33;21.15;80.80
68257;DHT22;55069;51.568;4.656;2022-08-19T08:20:59;20.70;81.46
68257;DHT22;55069;51.568;4.656;2022-08-19T08:23:25;20.59;82.58
68257;DHT22;55069;51.568;4.656;2022-08-19T08:25:53;20.81;81.95
68257;DHT22;55069;51.568;4.656;2022-08-19T08:28:20;21.17;81.32
68257;DHT22;55069;51.568;4.656;2022-08-19T08:30:48;21.34;79.89
68257;DHT22;55069;51.568;4.656;2022-08-19T08:33:18;21.50;79.89
68257;DHT22;55069;51.568;4.656;2022-08-19T08:35:44;21.21;80.15
68257;DHT22;55069;51.568;4.656;2022-08-19T08:38:11;21.50;79.95
68257;DHT22;55069;51.568;4.656;2022-08-19T08:40:53;21.29;80.10
68257;DHT22;55069;51.568;4.656;2022-08-19T08:43:34;21.42;79.85
68257;DHT22;55069;51.568;4.656;2022-08-19T08:51:05;22.37;77.55
68257;DHT22;55069;51.568;4.656;2022-08-19T08:53:34;22.05;77.51
68257;DHT22;55069;51.568;4.656;2022-08-19T08:56:02;21.76;78.39
68257;DHT22;55069;51.568;4.656;2022-08-19T08:58:39;22.05;77.64
68257;DHT22;55069;51.568;4.656;2022-08-19T09:01:10;22.32;77.47
68257;DHT22;55069;51.568;4.656;2022-08-19T09:03:37;22.30;77.02
68257;DHT22;55069;51.568;4.656;2022-08-19T09:09:10;22.13;78.24
68257;DHT22;55069;51.568;4.656;2022-08-19T09:11:55;22.24;77.77
68257;DHT22;55069;51.568;4.656;2022-08-19T09:14:35;22.28;77.53
68257;DHT22;55069;51.568;4.656;2022-08-19T09:17:03;22.30;77.62
68257;DHT22;55069;51.568;4.656;2022-08-19T09:19:34;22.28;77.34
68257;DHT22;55069;51.568;4.656;2022-08-19T09:22:00;22.25;77.05
68257;DHT22;55069;51.568;4.656;2022-08-19T09:24:26;22.28;77.09
68257;DHT22;55069;51.568;4.656;2022-08-19T09:26:52;22.56;76.79
68257;DHT22;55069;51.568;4.656;2022-08-19T09:29:17;22.32;76.98
68257;DHT22;55069;51.568;4.656;2022-08-19T09:31:43;22.04;77.89
68257;DHT22;55069;51.568;4.656;2022-08-19T09:34:09;22.22;78.11
68257;DHT22;55069;51.568;4.656;2022-08-19T09:36:34;22.70;77.33
68257;DHT22;55069;51.568;4.656;2022-08-19T09:39:05;23.23;74.81
68257;DHT22;55069;51.568;4.656;2022-08-19T09:41:31;23.10;74.09
68257;DHT22;55069;51.568;4.656;2022-08-19T09:43:57;23.31;74.61
68257;DHT22;55069;51.568;4.656;2022-08-19T09:46:26;22.90;75.26
68257;DHT22;55069;51.568;4.656;2022-08-19T09:48:53;23.13;74.88
68257;DHT22;55069;51.568;4.656;2022-08-19T09:51:22;23.16;75.17
68257;DHT22;55069;51.568;4.656;2022-08-19T09:53:49;23.23;74.47
68257;DHT22;55069;51.568;4.656;2022-08-19T09:56:17;23.55;74.63
68257;DHT22;55069;51.568;4.656;2022-08-19T09:58:43;23.31;74.95
68257;DHT22;55069;51.568;4.656;2022-08-19T10:01:09;23.82;74.44
68257;DHT22;55069;51.568;4.656;2022-08-19T10:03:35;24.05;72.40
68257;DHT22;55069;51.568;4.656;2022-08-19T10:06:04;24.40;72.09
68257;DHT22;55069;51.568;4.656;2022-08-19T10:08:34;24.65;71.16
68257;DHT22;55069;51.568;4.656;2022-08-19T10:11:00;24.89;70.47
68257;DHT22;55069;51.568;4.656;2022-08-19T10:13:28;25.02;69.53
68257;DHT22;55069;51.568;4.656;2022-08-19T10:16:05;25.05;69.10
68257;DHT22;55069;51.568;4.656;2022-08-19T10:18:32;25.25;69.30
68257;DHT22;55069;51.568;4.656;2022-08-19T10:21:08;25.11;67.55
68257;DHT22;55069;51.568;4.656;2022-08-19T10:23:36;24.30;68.02
68257;DHT22;55069;51.568;4.656;2022-08-19T10:26:03;23.79;69.63
68257;DHT22;55069;51.568;4.656;2022-08-19T10:28:33;24.16;70.28
68257;DHT22;55069;51.568;4.656;2022-08-19T10:31:04;24.46;69.80
68257;DHT22;55069;51.568;4.656;2022-08-19T10:33:30;24.54;69.70
68257;DHT22;55069;51.568;4.656;2022-08-19T10:36:01;24.89;69.46
68257;DHT22;55069;51.568;4.656;2022-08-19T10:38:27;25.12;68.48
68257;DHT22;55069;51.568;4.656;2022-08-19T10:40:54;25.45;67.22
68257;DHT22;55069;51.568;4.656;2022-08-19T10:43:20;24.64;68.23
68257;DHT22;55069;51.568;4.656;2022-08-19T10:45:52;24.99;68.47
68257;DHT22;55069;51.568;4.656;2022-08-19T10:48:19;25.57;67.17
68257;DHT22;55069;51.568;4.656;2022-08-19T10:50:44;25.85;65.47
68257;DHT22;55069;51.568;4.656;2022-08-19T10:53:28;25.53;66.41
68257;DHT22;55069;51.568;4.656;2022-08-19T10:55:54;25.32;67.76
68257;DHT22;55069;51.568;4.656;2022-08-19T10:58:40;24.54;70.79
68257;DHT22;55069;51.568;4.656;2022-08-19T11:01:08;24.37;73.89
68257;DHT22;55069;51.568;4.656;2022-08-19T11:03:34;24.27;75.28
68257;DHT22;55069;51.568;4.656;2022-08-19T11:06:03;23.98;76.06
68257;DHT22;55069;51.568;4.656;2022-08-19T11:08:29;23.88;76.58
68257;DHT22;55069;51.568;4.656;2022-08-19T11:10:59;24.01;77.09
68257;DHT22;55069;51.568;4.656;2022-08-19T11:13:27;23.85;76.83
68257;DHT22;55069;51.568;4.656;2022-08-19T11:15:58;23.81;77.77
68257;DHT22;55069;51.568;4.656;2022-08-19T11:18:24;23.88;76.34
68257;DHT22;55069;51.568;4.656;2022-08-19T11:20:50;23.34;76.30
68257;DHT22;55069;51.568;4.656;2022-08-19T11:23:15;23.59;77.12
68257;DHT22;55069;51.568;4.656;2022-08-19T11:25:41;23.47;78.28
68257;DHT22;55069;51.568;4.656;2022-08-19T11:28:07;23.26;77.70
68257;DHT22;55069;51.568;4.656;2022-08-19T11:30:32;23.07;78.11
68257;DHT22;55069;51.568;4.656;2022-08-19T11:32:59;23.24;78.63
68257;DHT22;55069;51.568;4.656;2022-08-19T11:35:26;23.26;78.16
68257;DHT22;55069;51.568;4.656;2022-08-19T11:37:52;23.43;79.45
68257;DHT22;55069;51.568;4.656;2022-08-19T11:40:17;23.45;78.73
68257;DHT22;55069;51.568;4.656;2022-08-19T11:42:43;23.23;79.68
68257;DHT22;55069;51.568;4.656;2022-08-19T11:45:27;23.40;79.79
68257;DHT22;55069;51.568;4.656;2022-08-19T11:47:53;23.45;78.98
68257;DHT22;55069;51.568;4.656;2022-08-19T11:50:19;23.65;80.03
68257;DHT22;55069;51.568;4.656;2022-08-19T11:52:46;23.76;79.17
68257;DHT22;55069;51.568;4.656;2022-08-19T11:55:13;23.75;78.35
68257;DHT22;55069;51.568;4.656;2022-08-19T11:57:39;23.89;78.87
68257;DHT22;55069;51.568;4.656;2022-08-19T12:00:06;23.96;78.21
68257;DHT22;55069;51.568;4.656;2022-08-19T12:02:33;24.36;76.63
68257;DHT22;55069;51.568;4.656;2022-08-19T12:04:59;24.50;76.85
68257;DHT22;55069;51.568;4.656;2022-08-19T12:07:27;24.58;75.60
68257;DHT22;55069;51.568;4.656;2022-08-19T12:09:54;24.60;77.48
68257;DHT22;55069;51.568;4.656;2022-08-19T12:12:20;24.49;75.91
68257;DHT22;55069;51.568;4.656;2022-08-19T12:14:46;24.06;76.55
68257;DHT22;55069;51.568;4.656;2022-08-19T12:17:12;24.09;77.26
68257;DHT22;55069;51.568;4.656;2022-08-19T12:19:38;24.13;75.91
68257;DHT22;55069;51.568;4.656;2022-08-19T12:22:04;24.14;76.10
68257;DHT22;55069;51.568;4.656;2022-08-19T12:24:32;24.40;75.03
68257;DHT22;55069;51.568;4.656;2022-08-19T12:26:58;24.65;74.27
68257;DHT22;55069;51.568;4.656;2022-08-19T12:29:27;24.70;73.71
68257;DHT22;55069;51.568;4.656;2022-08-19T12:31:54;24.36;72.85
68257;DHT22;55069;51.568;4.656;2022-08-19T12:34:20;24.92;74.84
68257;DHT22;55069;51.568;4.656;2022-08-19T12:36:46;25.35;73.99
68257;DHT22;55069;51.568;4.656;2022-08-19T12:39:14;25.29;73.10
68257;DHT22;55069;51.568;4.656;2022-08-19T12:41:40;25.29;72.13
68257;DHT22;55069;51.568;4.656;2022-08-19T12:44:05;24.89;72.37
68257;DHT22;55069;51.568;4.656;2022-08-19T12:46:31;25.06;71.50
68257;DHT22;55069;51.568;4.656;2022-08-19T12:48:57;25.32;72.14
68257;DHT22;55069;51.568;4.656;2022-08-19T12:51:22;25.39;70.90
68257;DHT22;55069;51.568;4.656;2022-08-19T12:53:49;24.34;71.54
68257;DHT22;55069;51.568;4.656;2022-08-19T12:56:15;24.14;72.86
68257;DHT22;55069;51.568;4.656;2022-08-19T12:58:42;24.46;72.63
68257;DHT22;55069;51.568;4.656;2022-08-19T13:01:15;24.23;73.52
68257;DHT22;55069;51.568;4.656;2022-08-19T13:03:41;24.20;72.53
68257;DHT22;55069;51.568;4.656;2022-08-19T13:06:09;24.23;73.22
68257;DHT22;55069;51.568;4.656;2022-08-19T13:08:35;24.51;73.33
68257;DHT22;55069;51.568;4.656;2022-08-19T13:11:16;24.81;72.78
68257;DHT22;55069;51.568;4.656;2022-08-19T13:13:45;24.87;71.38
68257;DHT22;55069;51.568;4.656;2022-08-19T13:16:12;24.94;72.16
68257;DHT22;55069;51.568;4.656;2022-08-19T13:18:39;24.81;69.80
68257;DHT22;55069;51.568;4.656;2022-08-19T13:21:06;24.63;71.00
68257;DHT22;55069;51.568;4.656;2022-08-19T13:23:33;25.20;70.22
68257;DHT22;55069;51.568;4.656;2022-08-19T13:26:02;25.70;69.08
68257;DHT22;55069;51.568;4.656;2022-08-19T13:28:29;25.63;65.26
68257;DHT22;55069;51.568;4.656;2022-08-19T13:31:16;26.32;66.36
68257;DHT22;55069;51.568;4.656;2022-08-19T13:34:01;26.31;66.35
68257;DHT22;55069;51.568;4.656;2022-08-19T13:36:26;25.81;66.39
68257;DHT22;55069;51.568;4.656;2022-08-19T13:38:52;25.73;67.82
68257;DHT22;55069;51.568;4.656;2022-08-19T13:41:18;25.63;67.58
68257;DHT22;55069;51.568;4.656;2022-08-19T13:43:44;25.49;67.16
68257;DHT22;55069;51.568;4.656;2022-08-19T13:46:11;25.27;67.69
68257;DHT22;55069;51.568;4.656;2022-08-19T13:48:39;24.71;69.28
68257;DHT22;55069;51.568;4.656;2022-08-19T13:51:07;24.60;69.35
68257;DHT22;55069;51.568;4.656;2022-08-19T13:53:38;23.96;70.59
68257;DHT22;55069;51.568;4.656;2022-08-19T13:56:05;23.99;71.82
68257;DHT22;55069;51.568;4.656;2022-08-19T13:58:33;23.62;74.58
68257;DHT22;55069;51.568;4.656;2022-08-19T14:00:59;22.89;77.65
68257;DHT22;55069;51.568;4.656;2022-08-19T14:03:25;22.76;79.11
68257;DHT22;55069;51.568;4.656;2022-08-19T14:05:51;22.47;82.15
68257;DHT22;55069;51.568;4.656;2022-08-19T14:08:17;22.44;82.12
68257;DHT22;55069;51.568;4.656;2022-08-19T14:10:43;22.20;82.99
68257;DHT22;55069;51.568;4.656;2022-08-19T14:13:16;22.14;83.19
68257;DHT22;55069;51.568;4.656;2022-08-19T14:15:43;22.31;83.16
68257;DHT22;55069;51.568;4.656;2022-08-19T14:18:09;22.42;82.28
68257;DHT22;55069;51.568;4.656;2022-08-19T14:20:36;22.48;82.10
68257;DHT22;55069;51.568;4.656;2022-08-19T14:23:02;22.65;82.23
68257;DHT22;55069;51.568;4.656;2022-08-19T14:25:30;22.48;82.10
68257;DHT22;55069;51.568;4.656;2022-08-19T14:27:57;22.77;82.05
68257;DHT22;55069;51.568;4.656;2022-08-19T14:30:26;22.89;81.44
68257;DHT22;55069;51.568;4.656;2022-08-19T14:32:53;23.09;80.89
68257;DHT22;55069;51.568;4.656;2022-08-19T14:35:19;23.11;79.99
68257;DHT22;55069;51.568;4.656;2022-08-19T14:37:48;23.28;80.63
68257;DHT22;55069;51.568;4.656;2022-08-19T14:40:18;23.18;79.79
68257;DHT22;55069;51.568;4.656;2022-08-19T14:42:48;23.30;80.48
68257;DHT22;55069;51.568;4.656;2022-08-19T14:45:14;23.37;80.05
68257;DHT22;55069;51.568;4.656;2022-08-19T14:47:39;23.30;80.14
68257;DHT22;55069;51.568;4.656;2022-08-19T14:50:07;23.21;80.10
68257;DHT22;55069;51.568;4.656;2022-08-19T14:52:33;23.36;79.82
68257;DHT22;55069;51.568;4.656;2022-08-19T14:54:59;23.34;80.73
68257;DHT22;55069;51.568;4.656;2022-08-19T14:57:25;23.28;79.92
68257;DHT22;55069;51.568;4.656;2022-08-19T14:59:51;23.47;80.73
68257;DHT22;55069;51.568;4.656;2022-08-19T15:02:16;23.51;78.90
68257;DHT22;55069;51.568;4.656;2022-08-19T15:04:42;23.45;78.08
68257;DHT22;55069;51.568;4.656;2022-08-19T15:07:09;23.36;78.13
68257;DHT22;55069;51.568;4.656;2022-08-19T15:09:34;23.30;77.50
68257;DHT22;55069;51.568;4.656;2022-08-19T15:12:01;23.33;77.78
68257;DHT22;55069;51.568;4.656;2022-08-19T15:14:28;23.38;77.95
68257;DHT22;55069;51.568;4.656;2022-08-19T15:17:01;23.45;78.19
68257;DHT22;55069;51.568;4.656;2022-08-19T15:19:27;23.50;77.49
68257;DHT22;55069;51.568;4.656;2022-08-19T15:21:54;23.57;76.89
68257;DHT22;55069;51.568;4.656;2022-08-19T15:24:20;23.53;76.75
68257;DHT22;55069;51.568;4.656;2022-08-19T15:26:46;23.43;77.08
68257;DHT22;55069;51.568;4.656;2022-08-19T15:29:12;23.31;76.41
68257;DHT22;55069;51.568;4.656;2022-08-19T15:31:41;23.16;77.17
68257;DHT22;55069;51.568;4.656;2022-08-19T15:34:06;22.79;77.94
68257;DHT22;55069;51.568;4.656;2022-08-19T15:36:32;22.70;77.77
68257;DHT22;55069;51.568;4.656;2022-08-19T15:38:58;22.72;78.22
68257;DHT22;55069;51.568;4.656;2022-08-19T15:41:27;22.75;78.07
68257;DHT22;55069;51.568;4.656;2022-08-19T15:43:59;22.65;79.24
68257;DHT22;55069;51.568;4.656;2022-08-19T15:46:27;22.69;80.04